Pagrindinis puslapis
METAR-TAF:

METAR-TAF

Oro uostai :

Seinejokis-Ilmajoki, Suomija

platuma: 62-41-37N, ilguma: 022-49-55E, Aukštis: 91 m

Dabartinis oras

Ataskaita buvo paskelbta 24 minutes, ne 07:20 UTC
Vėjas 6 kt iš Pietvakarių, svyruoja nuo Pietų ir Šiaurės Vakarų
Temperatūra -1°C
Drėgmė 80%
Slėgis 1004 hPa
Matomumas 10 km arba daugiau
nėra debesų žemiau 1500 m ir nėra kamuolinių lietaus debesų

METAR: EFSI 040720Z AUTO 23006KT 180V310 CAVOK M01/M04 Q1004

Laikas: 10:44 (07:44 UTC)


TAF: trūkstamas

Orai ataskaitas ir orų prognozės (METAR, TAF).

turimą stotys yra geltonos ir raudonos taškus žemėlapyje.

Perkelti pele per norėdami pamatyti stoties vardą.

Tada spustelėkite, norėdami matyti oro stebėjimo ir prognozės.

Norėdami pakeisti žemėlapį: spustelėkite ant žalios mygtukų su juodo kryžiaus žemyn,; žalią mygtuką su brūkšneliu, jei norite nutolinti; arba žalių rodyklių gretimoms žemėlapius.


METAR-TAF: